Time;durP1;ratioP1;P1;durP2;ratioP2;P2;SDS_P1;SDS_P2;PMS_P1;PMS_P2;Temp;Humidity;BMP_temperature;BMP_pressure;BME280_temperature;BME280_humidity;BME280_pressure;Samples;Min_cycle;Max_cycle;Signal;HPM_P1;HPM_P2
2022/10/21 00:00:56;;;;;;;19.80;16.90;;;10.80;99.90;;;;;;5072928;28;20239;-54
2022/10/21 00:03:26;;;;;;;21.30;17.17;;;10.80;99.90;;;;;;5073499;28;20224;-54
2022/10/21 00:05:54;;;;;;;19.80;16.00;;;10.80;99.90;;;;;;5073282;28;20744;-53
2022/10/21 00:08:22;;;;;;;20.60;16.70;;;10.80;99.90;;;;;;5073120;28;20331;-53
2022/10/21 00:10:53;;;;;;;19.90;16.53;;;10.70;99.90;;;;;;5073403;28;20707;-54
2022/10/21 00:13:22;;;;;;;20.77;17.23;;;10.70;99.90;;;;;;5073042;28;20230;-54
2022/10/21 00:15:59;;;;;;;20.33;17.33;;;10.70;99.90;;;;;;5072448;28;20220;-54
2022/10/21 00:18:27;;;;;;;21.23;16.63;;;10.70;99.90;;;;;;5072880;28;20227;-53
2022/10/21 00:20:56;;;;;;;19.50;16.73;;;10.70;99.90;;;;;;5072774;28;20244;-54
2022/10/21 00:23:24;;;;;;;18.63;16.63;;;10.70;99.90;;;;;;5072845;28;20225;-53
2022/10/21 00:25:57;;;;;;;22.17;16.77;;;10.70;99.90;;;;;;5073084;28;20225;-53
2022/10/21 00:28:26;;;;;;;19.07;16.93;;;10.80;99.90;;;;;;5072965;28;20568;-54
2022/10/21 00:30:54;;;;;;;22.10;17.00;;;10.80;99.90;;;;;;5072553;28;20271;-54
2022/10/21 00:33:26;;;;;;;20.67;18.47;;;10.90;99.90;;;;;;5072848;28;20274;-54
2022/10/21 00:35:57;;;;;;;21.60;17.80;;;10.90;99.90;;;;;;5072600;28;20250;-53
2022/10/21 00:38:25;;;;;;;22.80;18.37;;;10.90;99.90;;;;;;5072978;28;20316;-53
2022/10/21 00:40:53;;;;;;;22.07;18.20;;;10.90;99.90;;;;;;5073022;28;20676;-53
2022/10/21 00:43:23;;;;;;;22.13;17.63;;;10.90;99.90;;;;;;5072794;28;20253;-54
2022/10/21 00:45:57;;;;;;;20.50;17.60;;;10.90;99.90;;;;;;5072969;28;20687;-54
2022/10/21 00:48:32;;;;;;;20.87;18.43;;;11.00;99.90;;;;;;5072733;28;20292;-54
2022/10/21 00:51:05;;;;;;;21.97;18.53;;;10.90;99.90;;;;;;5072706;28;20230;-54
2022/10/21 00:53:36;;;;;;;20.47;17.80;;;11.00;99.90;;;;;;5072514;28;20742;-53
2022/10/21 00:56:08;;;;;;;22.87;16.73;;;11.00;99.90;;;;;;5072831;28;20236;-54
2022/10/21 00:58:46;;;;;;;23.17;17.83;;;11.10;99.90;;;;;;5072448;28;20237;-54
2022/10/21 01:01:15;;;;;;;20.77;17.70;;;11.00;99.90;;;;;;5072140;28;20712;-53
2022/10/21 01:03:49;;;;;;;22.93;19.27;;;11.00;99.90;;;;;;5072707;28;20728;-54
2022/10/21 01:06:20;;;;;;;21.83;18.53;;;11.00;99.90;;;;;;5072789;28;20232;-54
2022/10/21 01:08:48;;;;;;;21.80;18.50;;;11.00;99.90;;;;;;5072564;28;20248;-53
2022/10/21 01:11:19;;;;;;;22.00;18.70;;;11.00;99.90;;;;;;5072417;28;20230;-54
2022/10/21 01:14:01;;;;;;;20.87;17.53;;;10.90;99.90;;;;;;5072390;28;20236;-54
2022/10/21 01:16:39;;;;;;;23.53;18.40;;;10.90;99.90;;;;;;5072252;28;20228;-54
2022/10/21 01:19:36;;;;;;;19.97;16.90;;;11.00;99.90;;;;;;5072607;28;20692;-53
2022/10/21 01:22:21;;;;;;;21.53;18.50;;;11.10;99.90;;;;;;5071157;28;20294;-54
2022/10/21 01:25:04;;;;;;;23.23;18.57;;;11.10;99.90;;;;;;5072398;28;20248;-53
2022/10/21 01:27:45;;;;;;;20.03;16.83;;;11.10;99.90;;;;;;5075239;28;20232;-54
2022/10/21 01:30:36;;;;;;;20.80;16.20;;;11.10;99.90;;;;;;5076107;28;20690;-54
2022/10/21 01:33:35;;;;;;;22.63;17.60;;;11.20;99.90;;;;;;5076218;28;20214;-53
2022/10/21 01:36:14;;;;;;;22.07;18.17;;;11.20;99.90;;;;;;5075871;28;20255;-54
2022/10/21 01:38:50;;;;;;;23.70;18.60;;;11.10;99.90;;;;;;5075663;28;20236;-54
2022/10/21 01:41:24;;;;;;;20.07;17.57;;;11.00;99.90;;;;;;5076286;28;20223;-53
2022/10/21 01:43:58;;;;;;;19.77;16.77;;;11.00;99.90;;;;;;5076314;28;20752;-53
2022/10/21 01:46:33;;;;;;;21.60;17.80;;;11.00;99.90;;;;;;5075783;28;20214;-53
2022/10/21 01:49:07;;;;;;;20.33;16.23;;;10.90;99.90;;;;;;5076024;28;20240;-53
2022/10/21 01:51:37;;;;;;;22.30;17.53;;;11.00;99.90;;;;;;5075450;28;20231;-54
2022/10/21 01:54:09;;;;;;;23.57;17.23;;;11.00;99.90;;;;;;5075891;28;20717;-54
2022/10/21 01:56:40;;;;;;;21.93;17.87;;;11.00;99.90;;;;;;5075518;28;20277;-53
2022/10/21 01:59:11;;;;;;;22.50;17.83;;;11.10;99.90;;;;;;5076002;28;20234;-54
2022/10/21 02:01:42;;;;;;;23.50;18.37;;;11.10;99.90;;;;;;5075017;28;20242;-54
2022/10/21 02:04:13;;;;;;;23.83;18.73;;;11.10;99.90;;;;;;5075906;28;20628;-54
2022/10/21 02:06:41;;;;;;;22.27;17.70;;;11.10;99.90;;;;;;5075691;28;20601;-54
2022/10/21 02:09:09;;;;;;;20.83;17.70;;;11.10;99.90;;;;;;5075721;28;20243;-53
2022/10/21 02:11:40;;;;;;;23.20;19.43;;;11.10;99.90;;;;;;5075266;28;20241;-54
2022/10/21 02:14:13;;;;;;;23.83;19.03;;;11.10;99.90;;;;;;5075722;28;20638;-54
2022/10/21 02:16:44;;;;;;;22.73;19.10;;;11.10;99.90;;;;;;5075512;28;20232;-54
2022/10/21 02:19:16;;;;;;;25.37;19.63;;;11.10;99.90;;;;;;5075281;28;20691;-54
2022/10/21 02:21:46;;;;;;;23.60;19.53;;;11.10;99.90;;;;;;5075220;28;20274;-54
2022/10/21 02:24:20;;;;;;;26.67;19.00;;;11.10;99.90;;;;;;5075160;28;20564;-53
2022/10/21 02:26:48;;;;;;;24.83;19.50;;;11.20;99.90;;;;;;5075336;28;20233;-54
2022/10/21 02:29:22;;;;;;;24.10;19.87;;;11.20;99.90;;;;;;5075044;28;20275;-54
2022/10/21 02:32:02;;;;;;;25.57;19.73;;;11.20;99.90;;;;;;5074737;28;20245;-53
2022/10/21 02:34:41;;;;;;;23.63;19.47;;;11.20;99.90;;;;;;5075178;28;20312;-53
2022/10/21 02:37:18;;;;;;;24.23;19.33;;;11.20;99.90;;;;;;5074767;28;20248;-54
2022/10/21 02:39:51;;;;;;;22.27;19.47;;;11.30;99.90;;;;;;5074221;28;20230;-54
2022/10/21 02:42:25;;;;;;;22.40;18.47;;;11.20;99.90;;;;;;5075137;28;20279;-54
2022/10/21 02:44:53;;;;;;;25.30;20.03;;;11.30;99.90;;;;;;5075184;28;20683;-54
2022/10/21 02:47:25;;;;;;;27.70;19.87;;;11.30;99.90;;;;;;5075165;28;20229;-53
2022/10/21 02:49:53;;;;;;;25.60;19.73;;;11.30;99.90;;;;;;5074920;28;20237;-54
2022/10/21 02:52:21;;;;;;;23.00;19.40;;;11.40;99.90;;;;;;5074506;28;20227;-54
2022/10/21 02:54:49;;;;;;;28.37;21.20;;;11.40;99.90;;;;;;5074489;28;20236;-54
2022/10/21 02:57:17;;;;;;;26.73;20.60;;;11.40;99.90;;;;;;5074679;28;20239;-54
2022/10/21 02:59:45;;;;;;;24.87;19.87;;;11.40;99.90;;;;;;5074438;28;20290;-54
2022/10/21 03:02:13;;;;;;;22.73;17.80;;;11.40;99.90;;;;;;5074200;28;20256;-54
2022/10/21 03:04:43;;;;;;;21.77;18.83;;;11.40;99.90;;;;;;5074296;28;20286;-53
2022/10/21 03:07:11;;;;;;;25.07;19.63;;;11.40;99.90;;;;;;5074823;28;20228;-55
2022/10/21 03:09:39;;;;;;;26.33;18.87;;;11.40;99.90;;;;;;5074203;28;20293;-53
2022/10/21 03:12:07;;;;;;;22.10;18.13;;;11.30;99.90;;;;;;5074379;28;20277;-54
2022/10/21 03:14:35;;;;;;;26.33;20.13;;;11.30;99.90;;;;;;5074189;28;20225;-54
2022/10/21 03:17:03;;;;;;;21.30;18.63;;;11.30;99.90;;;;;;5074578;28;20740;-53
2022/10/21 03:19:31;;;;;;;23.93;19.60;;;11.30;99.90;;;;;;5074328;28;20692;-53
2022/10/21 03:22:00;;;;;;;22.70;18.93;;;11.20;99.90;;;;;;5073888;28;20260;-55
2022/10/21 03:24:28;;;;;;;23.27;19.77;;;11.30;99.90;;;;;;5073847;28;20267;-55
2022/10/21 03:26:56;;;;;;;24.37;19.70;;;11.20;99.90;;;;;;5074060;28;20215;-54
2022/10/21 03:29:24;;;;;;;25.50;19.60;;;11.20;99.90;;;;;;5073897;28;20249;-53
2022/10/21 03:31:53;;;;;;;25.63;20.13;;;11.20;99.90;;;;;;5073682;28;20242;-54
2022/10/21 03:34:21;;;;;;;24.53;19.43;;;11.20;99.90;;;;;;5074285;28;20229;-54
2022/10/21 03:36:49;;;;;;;27.03;19.67;;;11.20;99.90;;;;;;5073544;28;20246;-54
2022/10/21 03:39:18;;;;;;;23.80;19.97;;;11.20;99.90;;;;;;5074009;28;20225;-54
2022/10/21 03:41:46;;;;;;;24.10;18.50;;;11.20;99.90;;;;;;5073628;28;20224;-54
2022/10/21 03:44:14;;;;;;;25.73;20.03;;;11.20;99.90;;;;;;5073775;28;20231;-52
2022/10/21 03:46:42;;;;;;;25.67;19.63;;;11.20;99.90;;;;;;5073794;28;20282;-54
2022/10/21 03:49:11;;;;;;;26.83;19.30;;;11.20;99.90;;;;;;5073348;28;20237;-54
2022/10/21 03:51:48;;;;;;;24.07;19.40;;;11.30;99.90;;;;;;5073167;28;20262;-52
2022/10/21 03:54:18;;;;;;;25.13;19.47;;;11.30;99.90;;;;;;5073686;28;20567;-54
2022/10/21 03:56:46;;;;;;;25.40;19.13;;;11.30;99.90;;;;;;5073338;28;20236;-54
2022/10/21 03:59:14;;;;;;;26.77;19.27;;;11.20;99.90;;;;;;5073459;28;20688;-54
2022/10/21 04:01:42;;;;;;;24.17;19.63;;;11.20;99.90;;;;;;5072736;28;20235;-53
2022/10/21 04:04:10;;;;;;;25.70;19.27;;;11.20;99.90;;;;;;5073418;28;20275;-54
2022/10/21 04:06:38;;;;;;;29.07;20.30;;;11.20;99.90;;;;;;5073400;28;20685;-54
2022/10/21 04:09:06;;;;;;;25.53;20.23;;;11.20;99.90;;;;;;5073451;28;20231;-53
2022/10/21 04:11:36;;;;;;;25.67;19.70;;;11.20;99.90;;;;;;5073338;28;20231;-54
2022/10/21 04:14:04;;;;;;;30.43;21.50;;;11.20;99.90;;;;;;5073419;28;20683;-54
2022/10/21 04:16:33;;;;;;;29.87;19.23;;;11.20;99.90;;;;;;5073229;28;20231;-53
2022/10/21 04:19:01;;;;;;;27.90;20.30;;;11.30;99.90;;;;;;5073304;28;20635;-55
2022/10/21 04:21:29;;;;;;;28.07;20.90;;;11.20;99.90;;;;;;5072757;28;20580;-54
2022/10/21 04:23:57;;;;;;;29.90;21.33;;;11.20;99.90;;;;;;5072768;28;20229;-54
2022/10/21 04:26:25;;;;;;;27.33;20.83;;;11.30;99.90;;;;;;5072971;28;20616;-53
2022/10/21 04:28:54;;;;;;;28.73;21.53;;;11.20;99.90;;;;;;5072826;28;20244;-54
2022/10/21 04:31:22;;;;;;;31.37;22.07;;;11.20;99.90;;;;;;5072296;28;20276;-54
2022/10/21 04:33:56;;;;;;;28.63;21.50;;;11.20;99.90;;;;;;5072894;28;20225;-54
2022/10/21 04:36:24;;;;;;;29.87;20.87;;;11.20;99.90;;;;;;5072784;28;20262;-53
2022/10/21 04:38:52;;;;;;;27.83;22.00;;;11.20;99.90;;;;;;5073089;28;20228;-54
2022/10/21 04:41:20;;;;;;;27.73;20.43;;;11.20;99.90;;;;;;5072832;28;20222;-54
2022/10/21 04:43:48;;;;;;;27.97;20.80;;;11.20;99.90;;;;;;5072580;28;20325;-54
2022/10/21 04:46:19;;;;;;;21.77;18.37;;;11.20;99.90;;;;;;5073018;28;20228;-55
2022/10/21 04:48:47;;;;;;;25.43;19.47;;;11.10;99.90;;;;;;5072823;28;20638;-55
2022/10/21 04:51:15;;;;;;;25.33;19.00;;;11.20;99.90;;;;;;5072417;28;20245;-54
2022/10/21 04:53:43;;;;;;;24.90;19.00;;;11.30;99.90;;;;;;5072303;28;20275;-54
2022/10/21 04:56:11;;;;;;;23.27;18.97;;;11.30;99.90;;;;;;5072861;28;20718;-54
2022/10/21 04:58:39;;;;;;;27.27;19.80;;;11.30;99.90;;;;;;5072705;28;20227;-54
2022/10/21 05:01:07;;;;;;;27.73;19.77;;;11.30;99.90;;;;;;5071663;28;20236;-55
2022/10/21 05:03:37;;;;;;;26.43;18.93;;;11.30;99.90;;;;;;5072361;28;20236;-54
2022/10/21 05:06:05;;;;;;;26.10;21.00;;;11.30;99.90;;;;;;5072832;28;20230;-54
2022/10/21 05:08:33;;;;;;;23.97;19.10;;;11.30;99.90;;;;;;5072623;28;20228;-54
2022/10/21 05:11:02;;;;;;;27.33;18.67;;;11.20;99.90;;;;;;5072382;28;20255;-54
2022/10/21 05:13:32;;;;;;;25.63;19.20;;;11.10;99.90;;;;;;5072568;28;20258;-54
2022/10/21 05:16:01;;;;;;;25.90;19.57;;;11.20;99.90;;;;;;5072503;28;20726;-54
2022/10/21 05:18:30;;;;;;;25.47;19.50;;;11.30;99.90;;;;;;5072539;28;20232;-54
2022/10/21 05:21:00;;;;;;;28.23;20.20;;;11.30;99.90;;;;;;5072138;28;20237;-54
2022/10/21 05:23:28;;;;;;;27.03;20.80;;;11.30;99.90;;;;;;5072369;28;20233;-54
2022/10/21 05:25:56;;;;;;;25.00;19.30;;;11.30;99.90;;;;;;5072287;28;20226;-55
2022/10/21 05:28:24;;;;;;;25.53;19.70;;;11.20;99.90;;;;;;5072570;28;20720;-54
2022/10/21 05:30:53;;;;;;;29.17;21.00;;;11.30;99.90;;;;;;5071792;28;20237;-54
2022/10/21 05:33:21;;;;;;;28.10;21.33;;;11.30;99.90;;;;;;5073527;28;20223;-54
2022/10/21 05:35:56;;;;;;;33.27;21.93;;;11.30;99.90;;;;;;5069773;28;20247;-52
2022/10/21 05:38:26;;;;;;;27.87;20.27;;;11.40;99.90;;;;;;5071869;28;20234;-54
2022/10/21 05:40:54;;;;;;;29.13;21.47;;;11.40;99.90;;;;;;5071177;28;20217;-54
2022/10/21 05:43:22;;;;;;;26.00;18.93;;;11.60;99.90;;;;;;5075829;28;20239;-54
2022/10/21 05:45:50;;;;;;;27.33;21.20;;;11.70;99.90;;;;;;5071936;28;20562;-54
2022/10/21 05:48:19;;;;;;;29.43;20.70;;;11.60;99.90;;;;;;5080144;28;20310;-54
2022/10/21 05:50:51;;;;;;;29.43;22.17;;;11.80;99.90;;;;;;5075405;28;20241;-54
2022/10/21 05:53:19;;;;;;;27.77;19.57;;;11.70;99.90;;;;;;5075410;28;20245;-54
2022/10/21 05:55:56;;;;;;;31.73;22.63;;;11.70;99.90;;;;;;5072732;28;20237;-54
2022/10/21 05:58:24;;;;;;;31.77;21.73;;;11.80;99.90;;;;;;5074812;28;21249;-53
2022/10/21 06:00:54;;;;;;;28.20;20.53;;;11.70;99.90;;;;;;5074497;28;20257;-53
2022/10/21 06:03:22;;;;;;;27.20;21.33;;;11.60;99.90;;;;;;5079480;28;20247;-54
2022/10/21 06:05:51;;;;;;;26.47;20.37;;;11.70;99.90;;;;;;5073184;28;20313;-54
2022/10/21 06:08:19;;;;;;;27.77;19.83;;;11.60;99.90;;;;;;5077780;28;21095;-53
2022/10/21 06:10:47;;;;;;;27.53;20.93;;;11.70;99.90;;;;;;5073990;28;20224;-55
2022/10/21 06:13:16;;;;;;;28.30;20.80;;;11.70;99.90;;;;;;5076204;28;20283;-55
2022/10/21 06:15:44;;;;;;;32.50;20.70;;;11.70;99.90;;;;;;5075168;28;20232;-54
2022/10/21 06:18:17;;;;;;;28.90;20.07;;;11.70;99.90;;;;;;5071017;28;20320;-54
2022/10/21 06:20:45;;;;;;;27.53;19.97;;;11.70;99.90;;;;;;5076022;28;20234;-54
2022/10/21 06:23:15;;;;;;;28.07;20.03;;;11.80;99.90;;;;;;5077611;28;20239;-55
2022/10/21 06:25:43;;;;;;;24.07;19.00;;;11.80;99.90;;;;;;5074937;28;20241;-54
2022/10/21 06:28:11;;;;;;;26.80;21.47;;;11.80;99.90;;;;;;5074286;28;20299;-55
2022/10/21 06:30:40;;;;;;;27.33;21.70;;;11.80;99.90;;;;;;5076746;28;20733;-54
2022/10/21 06:33:09;;;;;;;28.27;19.90;;;11.70;99.90;;;;;;5079661;28;20216;-55
2022/10/21 06:35:37;;;;;;;27.13;20.77;;;11.80;99.90;;;;;;5082064;28;20252;-54
2022/10/21 06:38:05;;;;;;;26.10;19.93;;;11.90;99.90;;;;;;5079862;28;20267;-54
2022/10/21 06:40:33;;;;;;;28.30;18.90;;;11.80;99.90;;;;;;5075576;28;20230;-54
2022/10/21 06:43:01;;;;;;;27.17;20.37;;;12.00;99.90;;;;;;5074764;28;20230;-54
2022/10/21 06:45:29;;;;;;;25.00;19.13;;;11.90;99.90;;;;;;5074564;28;20247;-54
2022/10/21 06:47:59;;;;;;;21.00;17.27;;;12.00;99.90;;;;;;5077236;28;20858;-53
2022/10/21 06:50:27;;;;;;;27.67;20.57;;;12.10;99.90;;;;;;5076707;28;20221;-54
2022/10/21 06:52:55;;;;;;;26.03;20.33;;;12.10;99.90;;;;;;5074148;28;20229;-54
2022/10/21 06:55:24;;;;;;;24.07;19.80;;;12.10;99.90;;;;;;5077571;28;20239;-54
2022/10/21 06:57:52;;;;;;;23.43;17.83;;;12.00;99.90;;;;;;5076922;28;20588;-54
2022/10/21 07:00:20;;;;;;;25.73;18.87;;;12.10;99.90;;;;;;5080568;28;20234;-54
2022/10/21 07:02:48;;;;;;;27.63;20.60;;;12.20;99.90;;;;;;5077590;28;20235;-54
2022/10/21 07:05:18;;;;;;;22.97;19.00;;;12.10;99.90;;;;;;5079324;28;20584;-54
2022/10/21 07:07:46;;;;;;;23.17;18.43;;;12.10;99.90;;;;;;5080305;28;20300;-54
2022/10/21 07:10:14;;;;;;;22.93;18.13;;;12.10;99.90;;;;;;5079875;28;20707;-54
2022/10/21 07:12:43;;;;;;;23.10;18.40;;;12.20;99.90;;;;;;5078881;28;20722;-54
2022/10/21 07:15:11;;;;;;;23.97;20.50;;;12.30;99.90;;;;;;5075743;28;20248;-54
2022/10/21 07:17:39;;;;;;;24.33;18.27;;;12.10;99.90;;;;;;5074096;28;20601;-54
2022/10/21 07:20:08;;;;;;;23.80;18.60;;;12.10;99.90;;;;;;5075644;28;20234;-54
2022/10/21 07:22:38;;;;;;;20.60;18.40;;;12.00;99.90;;;;;;5076420;28;20699;-53
2022/10/21 07:25:07;;;;;;;21.73;18.00;;;12.00;99.90;;;;;;5073428;28;20225;-54
2022/10/21 07:27:35;;;;;;;21.60;17.30;;;12.10;99.90;;;;;;5076527;28;20232;-54
2022/10/21 07:30:04;;;;;;;22.97;17.87;;;12.10;99.90;;;;;;5075284;28;20228;-54
2022/10/21 07:32:32;;;;;;;22.63;18.60;;;12.10;99.90;;;;;;5075545;28;20627;-54
2022/10/21 07:35:00;;;;;;;23.07;18.73;;;12.10;99.90;;;;;;5073837;28;20241;-53
2022/10/21 07:37:28;;;;;;;24.90;18.60;;;12.10;99.90;;;;;;5073493;28;20224;-54
2022/10/21 07:39:57;;;;;;;22.80;18.33;;;12.20;99.90;;;;;;5076201;28;20226;-54
2022/10/21 07:42:27;;;;;;;23.53;18.07;;;12.20;99.90;;;;;;5079062;28;20218;-54
2022/10/21 07:44:58;;;;;;;21.57;18.60;;;12.30;99.90;;;;;;5070468;28;20573;-54
2022/10/21 07:47:26;;;;;;;23.47;18.67;;;12.20;99.90;;;;;;5074235;28;20697;-54
2022/10/21 07:49:54;;;;;;;22.53;18.17;;;12.40;99.90;;;;;;5082801;28;20630;-54
2022/10/21 07:52:22;;;;;;;25.07;19.97;;;12.40;99.90;;;;;;5077735;28;20233;-54
2022/10/21 07:54:50;;;;;;;21.23;18.57;;;12.40;99.90;;;;;;5077766;28;20258;-54
2022/10/21 07:57:20;;;;;;;21.37;17.70;;;12.40;99.90;;;;;;5077365;28;20234;-54
2022/10/21 07:59:48;;;;;;;24.83;18.70;;;12.40;99.90;;;;;;5073082;28;20234;-54
2022/10/21 08:02:16;;;;;;;22.37;17.13;;;12.40;99.90;;;;;;5076183;28;20234;-54
2022/10/21 08:04:44;;;;;;;26.47;18.30;;;12.40;99.90;;;;;;5073712;28;20566;-55
2022/10/21 08:07:12;;;;;;;22.27;18.07;;;12.30;99.90;;;;;;5074127;28;20240;-53
2022/10/21 08:09:41;;;;;;;20.27;17.90;;;12.30;99.90;;;;;;5072803;28;20712;-54
2022/10/21 08:12:09;;;;;;;22.50;18.07;;;12.30;99.90;;;;;;5072577;28;20585;-54
2022/10/21 08:14:43;;;;;;;20.33;17.47;;;12.30;99.90;;;;;;5072377;28;20229;-54
2022/10/21 08:17:11;;;;;;;23.67;18.20;;;12.30;99.90;;;;;;5072915;28;20245;-54
2022/10/21 08:19:39;;;;;;;20.40;18.00;;;12.40;99.90;;;;;;5072837;28;20223;-54
2022/10/21 08:22:08;;;;;;;19.57;17.30;;;12.40;99.90;;;;;;5072646;28;20223;-54
2022/10/21 08:24:36;;;;;;;21.87;17.70;;;12.40;99.90;;;;;;5072961;28;20225;-54
2022/10/21 08:27:09;;;;;;;24.60;18.13;;;12.40;99.90;;;;;;5072323;28;20229;-54
2022/10/21 08:29:37;;;;;;;26.87;17.93;;;12.40;99.90;;;;;;5075393;28;20227;-54
2022/10/21 08:32:08;;;;;;;21.50;17.40;;;12.50;99.90;;;;;;5073441;28;20230;-54
2022/10/21 08:34:37;;;;;;;21.30;17.40;;;12.50;99.90;;;;;;5072739;28;20286;-54
2022/10/21 08:37:05;;;;;;;24.10;19.17;;;12.60;99.90;;;;;;5074205;28;20245;-55
2022/10/21 08:39:33;;;;;;;21.90;18.53;;;12.70;99.90;;;;;;5073294;28;20283;-54
2022/10/21 08:42:07;;;;;;;21.23;18.90;;;12.80;99.90;;;;;;5084981;28;20420;-52
2022/10/21 08:44:49;;;;;;;25.00;18.80;;;12.80;99.90;;;;;;5082280;28;20715;-54
2022/10/21 08:47:24;;;;;;;23.00;17.40;;;13.00;99.90;;;;;;5077419;28;20239;-54
2022/10/21 08:49:58;;;;;;;21.50;17.23;;;13.10;99.90;;;;;;5074332;28;20233;-54
2022/10/21 08:52:37;;;;;;;20.83;17.33;;;13.20;99.90;;;;;;5079386;28;20229;-54
2022/10/21 08:55:11;;;;;;;19.50;16.67;;;13.30;99.90;;;;;;5076429;28;20225;-54
2022/10/21 08:57:39;;;;;;;20.93;17.07;;;13.60;99.90;;;;;;5076907;28;20233;-53
2022/10/21 09:00:16;;;;;;;20.33;17.53;;;13.70;99.90;;;;;;5077509;28;20233;-54
2022/10/21 09:02:58;;;;;;;22.90;18.57;;;14.10;99.90;;;;;;5075728;28;20292;-55
2022/10/21 09:05:36;;;;;;;21.00;15.80;;;14.40;99.90;;;;;;5072541;28;20284;-54
2022/10/21 09:08:20;;;;;;;18.13;15.87;;;14.70;99.90;;;;;;5071998;28;20231;-53
2022/10/21 09:11:01;;;;;;;17.00;15.20;;;15.10;99.90;;;;;;5077564;28;20233;-54
2022/10/21 09:13:48;;;;;;;17.70;14.37;;;15.40;99.90;;;;;;5071784;28;20270;-54
2022/10/21 09:16:23;;;;;;;16.20;13.70;;;15.60;99.90;;;;;;5072726;28;20222;-54
2022/10/21 09:19:04;;;;;;;17.60;13.77;;;15.90;99.90;;;;;;5074743;28;20297;-55
2022/10/21 09:21:44;;;;;;;15.70;13.00;;;16.00;99.90;;;;;;5078862;28;20237;-54
2022/10/21 09:24:18;;;;;;;15.23;13.40;;;16.00;99.90;;;;;;5072051;28;20254;-54
2022/10/21 09:26:50;;;;;;;14.40;12.57;;;16.20;99.90;;;;;;5075439;28;20234;-54
2022/10/21 09:29:26;;;;;;;13.40;12.13;;;16.30;99.90;;;;;;5081924;28;20222;-54
2022/10/21 09:31:59;;;;;;;14.90;12.47;;;16.50;99.90;;;;;;5074503;28;20231;-54
2022/10/21 09:34:40;;;;;;;14.60;12.40;;;16.60;99.90;;;;;;5071939;28;20223;-55
2022/10/21 09:37:16;;;;;;;14.03;12.10;;;16.80;99.90;;;;;;5074495;28;20740;-55
2022/10/21 09:39:48;;;;;;;13.87;12.37;;;16.90;99.90;;;;;;5071371;28;20586;-54
2022/10/21 09:42:16;;;;;;;13.47;11.57;;;17.00;99.90;;;;;;5076520;28;20223;-54
2022/10/21 09:45:06;;;;;;;12.43;11.13;;;17.10;99.90;;;;;;5073282;28;20703;-55
2022/10/21 09:47:34;;;;;;;12.37;11.17;;;17.00;99.90;;;;;;5080447;28;20349;-54
2022/10/21 09:50:04;;;;;;;14.00;11.73;;;17.30;99.90;;;;;;5075653;28;20695;-55
2022/10/21 09:52:37;;;;;;;12.80;11.60;;;17.40;99.90;;;;;;5075312;28;20230;-55
2022/10/21 09:55:11;;;;;;;13.83;11.50;;;17.50;99.90;;;;;;5071831;28;20234;-55
2022/10/21 09:57:48;;;;;;;12.40;11.13;;;17.50;99.90;;;;;;5078421;28;20231;-55
2022/10/21 10:00:16;;;;;;;11.70;10.53;;;17.60;99.90;;;;;;5073784;28;20231;-55
2022/10/21 10:02:46;;;;;;;11.93;10.73;;;17.50;99.90;;;;;;5077727;28;20227;-54
2022/10/21 10:05:35;;;;;;;12.63;10.37;;;17.50;99.90;;;;;;5077899;28;20219;-55
2022/10/21 10:08:27;;;;;;;13.00;10.67;;;17.40;99.90;;;;;;5075926;28;20310;-55
2022/10/21 10:11:03;;;;;;;11.93;10.73;;;17.40;99.90;;;;;;5076463;28;20281;-55
2022/10/21 10:13:31;;;;;;;13.10;10.53;;;17.50;99.90;;;;;;5075822;28;20235;-55
2022/10/21 10:16:23;;;;;;;11.93;9.93;;;17.40;99.90;;;;;;5074959;28;20227;-55
2022/10/21 10:18:53;;;;;;;12.27;10.97;;;17.50;99.90;;;;;;5071963;28;20241;-55
2022/10/21 10:21:23;;;;;;;15.23;11.20;;;17.60;99.90;;;;;;5069828;28;20247;-55
2022/10/21 10:23:53;;;;;;;11.33;9.93;;;17.80;99.90;;;;;;5084454;28;20265;-55
2022/10/21 10:26:26;;;;;;;11.07;9.87;;;18.20;99.90;;;;;;5080541;28;20239;-55
2022/10/21 10:28:56;;;;;;;10.73;9.63;;;18.60;99.90;;;;;;5080754;28;20683;-55
2022/10/21 10:31:28;;;;;;;10.07;9.07;;;19.00;99.90;;;;;;5078219;28;20236;-56
2022/10/21 10:33:58;;;;;;;11.03;8.90;;;19.40;99.90;;;;;;5074269;28;20244;-55
2022/10/21 10:36:30;;;;;;;10.43;8.90;;;19.80;99.90;;;;;;5074326;28;20244;-55
2022/10/21 10:39:00;;;;;;;10.13;8.27;;;20.10;99.90;;;;;;5074690;28;20230;-55
2022/10/21 10:41:33;;;;;;;9.10;8.20;;;20.20;99.90;;;;;;5074745;28;20238;-55
2022/10/21 10:44:08;;;;;;;9.23;8.07;;;20.30;99.90;;;;;;5074799;28;20687;-55
2022/10/21 10:46:38;;;;;;;10.93;8.37;;;20.20;99.90;;;;;;5076424;28;20313;-55
2022/10/21 10:49:20;;;;;;;8.80;7.90;;;20.30;99.90;;;;;;5085723;28;20250;-55
2022/10/21 10:52:04;;;;;;;8.97;7.43;;;20.40;99.90;;;;;;5071189;28;20236;-55
2022/10/21 10:54:33;;;;;;;9.13;7.07;;;20.50;99.90;;;;;;5077647;28;20734;-56
2022/10/21 10:57:05;;;;;;;10.30;7.70;;;20.60;99.90;;;;;;5075362;28;20230;-56
2022/10/21 10:59:38;;;;;;;7.83;6.90;;;20.70;99.90;;;;;;5072958;28;20233;-55
2022/10/21 11:02:25;;;;;;;8.23;7.27;;;20.80;99.90;;;;;;5073748;28;20225;-55
2022/10/21 11:05:07;;;;;;;8.33;7.37;;;20.50;99.90;;;;;;5074137;28;20226;-56
2022/10/21 11:07:43;;;;;;;9.07;6.97;;;20.50;99.90;;;;;;5074346;28;20238;-53
2022/10/21 11:10:26;;;;;;;7.73;7.03;;;20.30;99.90;;;;;;5081726;28;20234;-55
2022/10/21 11:12:54;;;;;;;7.80;6.93;;;20.10;99.90;;;;;;5078277;28;20226;-56
2022/10/21 11:15:26;;;;;;;7.90;6.60;;;19.90;99.90;;;;;;5077584;28;20245;-55
2022/10/21 11:18:00;;;;;;;7.93;6.90;;;20.00;99.90;;;;;;5081275;28;20222;-56
2022/10/21 11:20:58;;;;;;;7.13;6.20;;;20.10;99.90;;;;;;5078033;28;20227;-56
2022/10/21 11:23:45;;;;;;;10.73;7.20;;;20.00;99.90;;;;;;5085747;28;20244;-54
2022/10/21 11:26:22;;;;;;;7.67;6.67;;;20.00;99.90;;;;;;5081267;28;20243;-55
2022/10/21 11:28:58;;;;;;;8.57;6.83;;;20.10;99.90;;;;;;5079389;28;20224;-56
2022/10/21 11:31:37;;;;;;;9.10;6.83;;;20.10;99.90;;;;;;5082023;28;20230;-55
2022/10/21 11:34:35;;;;;;;10.13;6.63;;;20.00;99.90;;;;;;5072243;28;20235;-54
2022/10/21 11:37:12;;;;;;;7.27;6.27;;;20.10;99.90;;;;;;5073343;28;20261;-56
2022/10/21 11:39:52;;;;;;;6.80;6.00;;;20.00;99.90;;;;;;5081229;28;20228;-55
2022/10/21 11:42:30;;;;;;;10.43;6.70;;;20.00;99.90;;;;;;5070225;28;20242;-56
2022/10/21 11:45:09;;;;;;;9.30;7.13;;;20.00;99.90;;;;;;5081355;28;20229;-56
2022/10/21 11:47:45;;;;;;;10.37;7.10;;;19.90;99.90;;;;;;5076994;28;20230;-56
2022/10/21 11:50:23;;;;;;;8.83;6.53;;;19.90;99.90;;;;;;5068719;28;20278;-56
2022/10/21 11:53:11;;;;;;;8.63;6.90;;;20.00;99.90;;;;;;5070813;28;20250;-56
2022/10/21 11:55:47;;;;;;;6.83;6.13;;;20.20;99.90;;;;;;5073119;28;20226;-56
2022/10/21 11:58:38;;;;;;;7.70;6.90;;;20.20;99.90;;;;;;5073548;28;20230;-56
2022/10/21 12:01:28;;;;;;;11.67;7.07;;;20.20;99.90;;;;;;5069212;28;20242;-56
2022/10/21 12:04:16;;;;;;;7.53;6.73;;;20.30;99.90;;;;;;5063428;28;20225;-55
2022/10/21 12:06:52;;;;;;;8.43;6.67;;;20.30;99.90;;;;;;5066518;28;20230;-55
2022/10/21 12:09:24;;;;;;;7.77;7.03;;;20.40;99.90;;;;;;5067115;28;20237;-55
2022/10/21 12:11:58;;;;;;;8.60;7.33;;;20.30;99.90;;;;;;5067138;28;20226;-54
2022/10/21 12:14:29;;;;;;;10.93;6.90;;;20.10;99.90;;;;;;5067218;28;20230;-55
2022/10/21 12:17:03;;;;;;;7.97;6.33;;;20.20;99.90;;;;;;5066624;28;20321;-56
2022/10/21 12:19:31;;;;;;;7.07;6.37;;;20.20;99.90;;;;;;5064199;28;20215;-56
2022/10/21 12:22:00;;;;;;;7.87;6.10;;;20.20;99.90;;;;;;5064572;28;20298;-56
2022/10/21 12:24:42;;;;;;;7.40;6.70;;;20.10;99.90;;;;;;5067173;28;20215;-53
2022/10/21 12:27:18;;;;;;;9.17;6.73;;;20.10;99.90;;;;;;5067229;28;20223;-53
2022/10/21 12:30:01;;;;;;;9.67;6.50;;;20.00;99.90;;;;;;5066766;28;20690;-53
2022/10/21 12:32:34;;;;;;;8.13;6.53;;;20.00;99.90;;;;;;5065739;28;20227;-54
2022/10/21 12:35:03;;;;;;;8.40;6.40;;;20.00;99.90;;;;;;5064459;28;20234;-53
2022/10/21 12:38:03;;;;;;;8.83;6.50;;;19.90;99.90;;;;;;5064141;28;20240;-54
2022/10/21 12:40:37;;;;;;;9.67;6.33;;;19.90;99.90;;;;;;5064354;28;20226;-53
2022/10/21 12:43:18;;;;;;;6.40;5.80;;;19.70;99.90;;;;;;5063433;28;20625;-53
2022/10/21 12:45:47;;;;;;;8.00;6.00;;;19.60;99.90;;;;;;5067307;28;20275;-53
2022/10/21 12:48:32;;;;;;;7.27;6.50;;;19.60;99.90;;;;;;5066945;28;20223;-53
2022/10/21 12:51:03;;;;;;;9.63;7.10;;;19.50;99.90;;;;;;5065349;28;20252;-53
2022/10/21 12:53:40;;;;;;;9.83;6.40;;;19.40;99.90;;;;;;5066511;28;20229;-53
2022/10/21 12:56:10;;;;;;;8.37;6.40;;;19.40;99.90;;;;;;5061358;28;20752;-53